sensor_id;sensor_type;location;lat;lon;timestamp;temperature;humidity
46123;DHT22;31856;-35.404;149.120;2024-02-21T01:11:00;23.60;61.60
46123;DHT22;31856;-35.404;149.120;2024-02-21T01:13:33;23.60;61.50
46123;DHT22;31856;-35.404;149.120;2024-02-21T01:16:17;23.50;61.30
46123;DHT22;31856;-35.404;149.120;2024-02-21T01:18:51;23.30;61.90
46123;DHT22;31856;-35.404;149.120;2024-02-21T01:21:25;23.30;62.00
46123;DHT22;31856;-35.404;149.120;2024-02-21T01:23:55;23.30;62.50
46123;DHT22;31856;-35.404;149.120;2024-02-21T01:26:25;23.30;62.70
46123;DHT22;31856;-35.404;149.120;2024-02-21T01:28:56;23.30;62.80
46123;DHT22;31856;-35.404;149.120;2024-02-21T01:31:25;23.30;62.90
46123;DHT22;31856;-35.404;149.120;2024-02-21T01:33:56;23.30;62.80
46123;DHT22;31856;-35.404;149.120;2024-02-21T01:36:26;23.40;62.60
46123;DHT22;31856;-35.404;149.120;2024-02-21T01:38:56;23.70;62.00
46123;DHT22;31856;-35.404;149.120;2024-02-21T01:41:25;23.90;60.80
46123;DHT22;31856;-35.404;149.120;2024-02-21T01:43:55;24.10;60.40
46123;DHT22;31856;-35.404;149.120;2024-02-21T01:46:25;24.30;59.50
46123;DHT22;31856;-35.404;149.120;2024-02-21T01:48:59;24.40;59.50
46123;DHT22;31856;-35.404;149.120;2024-02-21T01:51:30;24.40;59.60
46123;DHT22;31856;-35.404;149.120;2024-02-21T01:54:01;24.30;58.90
46123;DHT22;31856;-35.404;149.120;2024-02-21T01:56:31;24.10;59.70
46123;DHT22;31856;-35.404;149.120;2024-02-21T01:59:01;24.10;60.20
46123;DHT22;31856;-35.404;149.120;2024-02-21T02:01:31;24.10;60.50
46123;DHT22;31856;-35.404;149.120;2024-02-21T02:04:02;24.00;60.80
46123;DHT22;31856;-35.404;149.120;2024-02-21T02:06:34;24.00;61.00
46123;DHT22;31856;-35.404;149.120;2024-02-21T02:29:20;25.50;57.40
46123;DHT22;31856;-35.404;149.120;2024-02-21T02:31:51;25.60;56.40
46123;DHT22;31856;-35.404;149.120;2024-02-21T02:34:20;25.70;55.70
46123;DHT22;31856;-35.404;149.120;2024-02-21T02:36:50;25.60;55.90
46123;DHT22;31856;-35.404;149.120;2024-02-21T02:39:20;25.50;56.60
46123;DHT22;31856;-35.404;149.120;2024-02-21T02:41:49;25.30;56.40
46123;DHT22;31856;-35.404;149.120;2024-02-21T02:44:19;25.40;57.20
46123;DHT22;31856;-35.404;149.120;2024-02-21T02:46:48;25.40;57.60
46123;DHT22;31856;-35.404;149.120;2024-02-21T02:49:18;25.50;57.40
46123;DHT22;31856;-35.404;149.120;2024-02-21T02:51:47;25.50;57.60
46123;DHT22;31856;-35.404;149.120;2024-02-21T02:54:17;25.80;57.50
46123;DHT22;31856;-35.404;149.120;2024-02-21T02:56:51;26.10;56.30
46123;DHT22;31856;-35.404;149.120;2024-02-21T02:59:21;26.10;55.90
46123;DHT22;31856;-35.404;149.120;2024-02-21T03:01:52;26.10;56.00
46123;DHT22;31856;-35.404;149.120;2024-02-21T03:04:22;26.20;56.70
46123;DHT22;31856;-35.404;149.120;2024-02-21T03:06:52;26.30;57.20
46123;DHT22;31856;-35.404;149.120;2024-02-21T03:09:21;26.50;56.00
46123;DHT22;31856;-35.404;149.120;2024-02-21T03:11:51;26.60;56.10
46123;DHT22;31856;-35.404;149.120;2024-02-21T03:14:26;26.40;55.90
46123;DHT22;31856;-35.404;149.120;2024-02-21T03:16:56;26.20;56.00
46123;DHT22;31856;-35.404;149.120;2024-02-21T03:19:26;26.10;57.00
46123;DHT22;31856;-35.404;149.120;2024-02-21T03:21:56;26.00;56.50
46123;DHT22;31856;-35.404;149.120;2024-02-21T03:24:28;25.80;57.00
46123;DHT22;31856;-35.404;149.120;2024-02-21T03:26:58;25.80;56.30
46123;DHT22;31856;-35.404;149.120;2024-02-21T03:32:13;25.80;56.50
46123;DHT22;31856;-35.404;149.120;2024-02-21T03:34:43;26.20;56.30
46123;DHT22;31856;-35.404;149.120;2024-02-21T03:37:14;26.50;55.90
46123;DHT22;31856;-35.404;149.120;2024-02-21T03:39:43;26.80;54.60
46123;DHT22;31856;-35.404;149.120;2024-02-21T03:42:13;27.00;54.00
46123;DHT22;31856;-35.404;149.120;2024-02-21T03:44:42;26.90;53.50
46123;DHT22;31856;-35.404;149.120;2024-02-21T03:47:12;26.70;53.30
46123;DHT22;31856;-35.404;149.120;2024-02-21T03:49:41;26.40;54.10
46123;DHT22;31856;-35.404;149.120;2024-02-21T03:52:11;26.20;54.70
46123;DHT22;31856;-35.404;149.120;2024-02-21T03:54:41;26.40;54.80
46123;DHT22;31856;-35.404;149.120;2024-02-21T03:57:11;26.70;55.50
46123;DHT22;31856;-35.404;149.120;2024-02-21T03:59:40;27.00;54.10
46123;DHT22;31856;-35.404;149.120;2024-02-21T04:02:11;27.20;53.60
46123;DHT22;31856;-35.404;149.120;2024-02-21T04:04:42;27.30;53.20
46123;DHT22;31856;-35.404;149.120;2024-02-21T04:07:16;27.50;53.30
46123;DHT22;31856;-35.404;149.120;2024-02-21T04:09:45;27.60;52.30
46123;DHT22;31856;-35.404;149.120;2024-02-21T04:12:15;27.70;51.70
46123;DHT22;31856;-35.404;149.120;2024-02-21T04:14:45;28.00;51.60
46123;DHT22;31856;-35.404;149.120;2024-02-21T04:17:14;28.20;50.20
46123;DHT22;31856;-35.404;149.120;2024-02-21T04:19:44;28.20;49.70
46123;DHT22;31856;-35.404;149.120;2024-02-21T04:22:13;28.30;49.70
46123;DHT22;31856;-35.404;149.120;2024-02-21T04:24:43;28.50;49.80
46123;DHT22;31856;-35.404;149.120;2024-02-21T04:27:13;28.60;49.40
46123;DHT22;31856;-35.404;149.120;2024-02-21T04:29:43;28.60;49.50
46123;DHT22;31856;-35.404;149.120;2024-02-21T05:26:06;27.50;55.00
46123;DHT22;31856;-35.404;149.120;2024-02-21T05:28:36;27.60;54.00
46123;DHT22;31856;-35.404;149.120;2024-02-21T05:31:06;27.70;53.50
46123;DHT22;31856;-35.404;149.120;2024-02-21T05:33:37;27.80;53.00
46123;DHT22;31856;-35.404;149.120;2024-02-21T05:36:07;27.90;53.80
46123;DHT22;31856;-35.404;149.120;2024-02-21T05:38:37;28.00;52.40
46123;DHT22;31856;-35.404;149.120;2024-02-21T05:41:07;28.00;52.10
46123;DHT22;31856;-35.404;149.120;2024-02-21T05:43:38;27.70;52.20
46123;DHT22;31856;-35.404;149.120;2024-02-21T05:46:08;27.70;52.70
46123;DHT22;31856;-35.404;149.120;2024-02-21T05:48:38;27.70;52.30
46123;DHT22;31856;-35.404;149.120;2024-02-21T05:51:08;27.80;51.80
46123;DHT22;31856;-35.404;149.120;2024-02-21T05:53:37;28.00;51.50
46123;DHT22;31856;-35.404;149.120;2024-02-21T05:56:12;28.10;51.30
46123;DHT22;31856;-35.404;149.120;2024-02-21T05:58:42;28.10;51.30
46123;DHT22;31856;-35.404;149.120;2024-02-21T06:01:12;28.10;52.10
46123;DHT22;31856;-35.404;149.120;2024-02-21T06:03:42;28.10;52.60
46123;DHT22;31856;-35.404;149.120;2024-02-21T06:06:12;28.10;53.20
46123;DHT22;31856;-35.404;149.120;2024-02-21T06:08:43;28.00;52.40
46123;DHT22;31856;-35.404;149.120;2024-02-21T06:11:12;27.80;52.20
46123;DHT22;31856;-35.404;149.120;2024-02-21T06:13:45;27.80;51.70
46123;DHT22;31856;-35.404;149.120;2024-02-21T06:16:14;27.70;51.50
46123;DHT22;31856;-35.404;149.120;2024-02-21T06:18:44;27.50;52.00
46123;DHT22;31856;-35.404;149.120;2024-02-21T06:21:14;27.30;52.20
46123;DHT22;31856;-35.404;149.120;2024-02-21T06:23:45;27.30;52.80
46123;DHT22;31856;-35.404;149.120;2024-02-21T07:34:54;25.90;57.00
46123;DHT22;31856;-35.404;149.120;2024-02-21T07:37:25;25.70;57.20
46123;DHT22;31856;-35.404;149.120;2024-02-21T07:39:58;25.60;57.60
46123;DHT22;31856;-35.404;149.120;2024-02-21T07:42:28;25.50;58.30
46123;DHT22;31856;-35.404;149.120;2024-02-21T07:44:58;25.40;58.60
46123;DHT22;31856;-35.404;149.120;2024-02-21T07:47:28;25.40;59.20
46123;DHT22;31856;-35.404;149.120;2024-02-21T07:49:58;25.30;59.80
46123;DHT22;31856;-35.404;149.120;2024-02-21T07:52:29;25.20;60.20
46123;DHT22;31856;-35.404;149.120;2024-02-21T07:54:58;25.20;60.20
46123;DHT22;31856;-35.404;149.120;2024-02-21T07:57:28;25.20;60.40
46123;DHT22;31856;-35.404;149.120;2024-02-21T07:59:58;25.30;60.20
46123;DHT22;31856;-35.404;149.120;2024-02-21T08:02:29;25.20;60.40
46123;DHT22;31856;-35.404;149.120;2024-02-21T08:04:59;25.10;60.70
46123;DHT22;31856;-35.404;149.120;2024-02-21T08:07:29;25.00;60.80
46123;DHT22;31856;-35.404;149.120;2024-02-21T08:09:59;24.90;61.00
46123;DHT22;31856;-35.404;149.120;2024-02-21T08:12:30;24.90;61.30
46123;DHT22;31856;-35.404;149.120;2024-02-21T08:15:01;24.80;61.40
46123;DHT22;31856;-35.404;149.120;2024-02-21T08:17:32;24.70;61.50
46123;DHT22;31856;-35.404;149.120;2024-02-21T08:20:03;24.70;61.50
46123;DHT22;31856;-35.404;149.120;2024-02-21T08:22:33;24.70;61.60
46123;DHT22;31856;-35.404;149.120;2024-02-21T08:25:03;24.70;61.50
46123;DHT22;31856;-35.404;149.120;2024-02-21T08:27:34;24.60;61.20
46123;DHT22;31856;-35.404;149.120;2024-02-21T08:30:05;24.50;61.50
46123;DHT22;31856;-35.404;149.120;2024-02-21T08:32:37;24.40;61.70
46123;DHT22;31856;-35.404;149.120;2024-02-21T08:35:07;24.30;62.00
46123;DHT22;31856;-35.404;149.120;2024-02-21T08:37:37;24.20;62.50
46123;DHT22;31856;-35.404;149.120;2024-02-21T08:40:07;24.20;62.60
46123;DHT22;31856;-35.404;149.120;2024-02-21T08:42:40;24.10;62.90
46123;DHT22;31856;-35.404;149.120;2024-02-21T08:45:10;24.00;63.40
46123;DHT22;31856;-35.404;149.120;2024-02-21T08:47:40;23.90;63.70
46123;DHT22;31856;-35.404;149.120;2024-02-21T08:50:11;23.80;63.80
46123;DHT22;31856;-35.404;149.120;2024-02-21T08:52:54;23.80;63.80
46123;DHT22;31856;-35.404;149.120;2024-02-21T08:55:24;23.70;63.80
46123;DHT22;31856;-35.404;149.120;2024-02-21T08:57:55;23.70;63.80
46123;DHT22;31856;-35.404;149.120;2024-02-21T09:00:25;23.60;64.10
46123;DHT22;31856;-35.404;149.120;2024-02-21T09:02:57;23.50;64.10
46123;DHT22;31856;-35.404;149.120;2024-02-21T09:05:27;23.40;64.00
46123;DHT22;31856;-35.404;149.120;2024-02-21T09:07:57;23.30;64.30
46123;DHT22;31856;-35.404;149.120;2024-02-21T09:10:27;23.20;64.40
46123;DHT22;31856;-35.404;149.120;2024-02-21T09:12:56;23.20;64.60
46123;DHT22;31856;-35.404;149.120;2024-02-21T09:15:26;23.10;65.00
46123;DHT22;31856;-35.404;149.120;2024-02-21T09:17:58;23.10;64.60
46123;DHT22;31856;-35.404;149.120;2024-02-21T09:20:28;23.10;64.80
46123;DHT22;31856;-35.404;149.120;2024-02-21T09:22:58;23.00;64.80
46123;DHT22;31856;-35.404;149.120;2024-02-21T09:25:29;23.00;65.00
46123;DHT22;31856;-35.404;149.120;2024-02-21T09:28:02;22.90;65.40
46123;DHT22;31856;-35.404;149.120;2024-02-21T09:30:32;22.80;65.40
46123;DHT22;31856;-35.404;149.120;2024-02-21T09:33:02;22.80;65.90
46123;DHT22;31856;-35.404;149.120;2024-02-21T09:35:35;22.80;65.70
46123;DHT22;31856;-35.404;149.120;2024-02-21T09:38:04;22.70;65.90
46123;DHT22;31856;-35.404;149.120;2024-02-21T09:40:34;22.70;66.20
46123;DHT22;31856;-35.404;149.120;2024-02-21T09:43:08;22.70;66.00
46123;DHT22;31856;-35.404;149.120;2024-02-21T09:45:38;22.60;66.20
46123;DHT22;31856;-35.404;149.120;2024-02-21T09:48:22;22.60;66.30
46123;DHT22;31856;-35.404;149.120;2024-02-21T09:51:01;22.50;66.40
46123;DHT22;31856;-35.404;149.120;2024-02-21T09:53:31;22.50;66.90
46123;DHT22;31856;-35.404;149.120;2024-02-21T09:56:02;22.40;66.90
46123;DHT22;31856;-35.404;149.120;2024-02-21T09:58:33;22.40;67.30
46123;DHT22;31856;-35.404;149.120;2024-02-21T10:01:04;22.30;67.50
46123;DHT22;31856;-35.404;149.120;2024-02-21T10:03:55;22.30;67.80
46123;DHT22;31856;-35.404;149.120;2024-02-21T10:16:17;22.10;69.10
46123;DHT22;31856;-35.404;149.120;2024-02-21T10:18:47;22.10;69.20
46123;DHT22;31856;-35.404;149.120;2024-02-21T10:21:17;22.00;69.60
46123;DHT22;31856;-35.404;149.120;2024-02-21T10:23:48;22.00;69.50
46123;DHT22;31856;-35.404;149.120;2024-02-21T10:26:18;21.90;69.70
46123;DHT22;31856;-35.404;149.120;2024-02-21T10:28:48;22.00;69.70
46123;DHT22;31856;-35.404;149.120;2024-02-21T10:31:24;21.90;69.60
46123;DHT22;31856;-35.404;149.120;2024-02-21T10:33:55;21.90;69.80
46123;DHT22;31856;-35.404;149.120;2024-02-21T10:36:25;21.80;70.20
46123;DHT22;31856;-35.404;149.120;2024-02-21T10:38:55;21.80;70.00
46123;DHT22;31856;-35.404;149.120;2024-02-21T10:41:25;21.80;70.20
46123;DHT22;31856;-35.404;149.120;2024-02-21T10:43:56;21.80;70.40
46123;DHT22;31856;-35.404;149.120;2024-02-21T10:46:27;21.80;70.50
46123;DHT22;31856;-35.404;149.120;2024-02-21T10:51:30;21.70;70.90
46123;DHT22;31856;-35.404;149.120;2024-02-21T10:56:37;21.70;70.80
46123;DHT22;31856;-35.404;149.120;2024-02-21T10:59:08;21.60;70.80
46123;DHT22;31856;-35.404;149.120;2024-02-21T11:01:38;21.60;70.90
46123;DHT22;31856;-35.404;149.120;2024-02-21T11:04:08;21.50;70.80
46123;DHT22;31856;-35.404;149.120;2024-02-21T11:06:40;21.50;70.90
46123;DHT22;31856;-35.404;149.120;2024-02-21T11:09:10;21.40;71.20
46123;DHT22;31856;-35.404;149.120;2024-02-21T11:11:41;21.40;71.50
46123;DHT22;31856;-35.404;149.120;2024-02-21T11:14:11;21.30;72.00
46123;DHT22;31856;-35.404;149.120;2024-02-21T14:20:25;18.80;76.80
46123;DHT22;31856;-35.404;149.120;2024-02-21T14:22:55;18.80;77.20
46123;DHT22;31856;-35.404;149.120;2024-02-21T14:25:25;18.70;77.20
46123;DHT22;31856;-35.404;149.120;2024-02-21T14:27:55;18.80;77.30
46123;DHT22;31856;-35.404;149.120;2024-02-21T14:30:24;18.80;77.80
46123;DHT22;31856;-35.404;149.120;2024-02-21T14:32:54;18.80;78.20
46123;DHT22;31856;-35.404;149.120;2024-02-21T14:35:24;18.80;78.30
46123;DHT22;31856;-35.404;149.120;2024-02-21T14:37:53;18.80;78.50
46123;DHT22;31856;-35.404;149.120;2024-02-21T14:40:26;18.80;78.50
46123;DHT22;31856;-35.404;149.120;2024-02-21T14:42:58;18.80;78.20
46123;DHT22;31856;-35.404;149.120;2024-02-21T14:45:29;18.90;78.20
46123;DHT22;31856;-35.404;149.120;2024-02-21T14:47:59;18.90;78.40
46123;DHT22;31856;-35.404;149.120;2024-02-21T14:50:29;18.90;78.50
46123;DHT22;31856;-35.404;149.120;2024-02-21T14:52:59;18.90;78.50
46123;DHT22;31856;-35.404;149.120;2024-02-21T14:55:28;19.00;78.90
46123;DHT22;31856;-35.404;149.120;2024-02-21T14:57:58;19.00;79.10
46123;DHT22;31856;-35.404;149.120;2024-02-21T15:00:29;19.00;79.00
46123;DHT22;31856;-35.404;149.120;2024-02-21T15:02:59;19.10;78.80
46123;DHT22;31856;-35.404;149.120;2024-02-21T15:05:29;19.10;78.70
46123;DHT22;31856;-35.404;149.120;2024-02-21T15:07:59;19.10;78.70
46123;DHT22;31856;-35.404;149.120;2024-02-21T15:10:29;19.10;78.60
46123;DHT22;31856;-35.404;149.120;2024-02-21T15:12:59;19.20;78.40
46123;DHT22;31856;-35.404;149.120;2024-02-21T15:15:30;19.20;78.30
46123;DHT22;31856;-35.404;149.120;2024-02-21T15:18:00;19.20;78.50
46123;DHT22;31856;-35.404;149.120;2024-02-21T16:07:33;19.10;79.60
46123;DHT22;31856;-35.404;149.120;2024-02-21T16:10:03;19.10;79.20
46123;DHT22;31856;-35.404;149.120;2024-02-21T16:12:34;19.20;79.30
46123;DHT22;31856;-35.404;149.120;2024-02-21T16:15:04;19.10;79.30
46123;DHT22;31856;-35.404;149.120;2024-02-21T16:17:34;19.10;79.40
46123;DHT22;31856;-35.404;149.120;2024-02-21T16:20:04;19.20;79.60
46123;DHT22;31856;-35.404;149.120;2024-02-21T16:22:38;19.10;79.40
46123;DHT22;31856;-35.404;149.120;2024-02-21T16:25:08;19.10;79.40
46123;DHT22;31856;-35.404;149.120;2024-02-21T16:27:38;19.20;79.50
46123;DHT22;31856;-35.404;149.120;2024-02-21T16:30:09;19.20;79.50
46123;DHT22;31856;-35.404;149.120;2024-02-21T16:32:39;19.20;79.50
46123;DHT22;31856;-35.404;149.120;2024-02-21T16:35:11;19.20;79.60
46123;DHT22;31856;-35.404;149.120;2024-02-21T16:37:41;19.20;79.60
46123;DHT22;31856;-35.404;149.120;2024-02-21T16:40:11;19.20;79.60
46123;DHT22;31856;-35.404;149.120;2024-02-21T16:42:41;19.10;79.70
46123;DHT22;31856;-35.404;149.120;2024-02-21T16:45:10;19.10;79.70
46123;DHT22;31856;-35.404;149.120;2024-02-21T16:47:40;19.10;79.90
46123;DHT22;31856;-35.404;149.120;2024-02-21T16:50:10;19.10;79.80
46123;DHT22;31856;-35.404;149.120;2024-02-21T16:52:40;19.00;79.90
46123;DHT22;31856;-35.404;149.120;2024-02-21T16:55:09;19.00;79.70
46123;DHT22;31856;-35.404;149.120;2024-02-21T16:57:43;19.00;79.90
46123;DHT22;31856;-35.404;149.120;2024-02-21T17:00:13;19.00;80.30
46123;DHT22;31856;-35.404;149.120;2024-02-21T17:02:42;19.00;80.50
46123;DHT22;31856;-35.404;149.120;2024-02-21T17:05:24;19.00;80.50
46123;DHT22;31856;-35.404;149.120;2024-02-21T17:07:55;19.00;80.30
46123;DHT22;31856;-35.404;149.120;2024-02-21T17:10:24;19.00;80.10
46123;DHT22;31856;-35.404;149.120;2024-02-21T17:12:54;19.00;80.00
46123;DHT22;31856;-35.404;149.120;2024-02-21T17:15:24;19.00;80.40
46123;DHT22;31856;-35.404;149.120;2024-02-21T17:17:53;19.00;80.50
46123;DHT22;31856;-35.404;149.120;2024-02-21T17:20:24;19.00;80.50
46123;DHT22;31856;-35.404;149.120;2024-02-21T17:22:54;19.10;80.30
46123;DHT22;31856;-35.404;149.120;2024-02-21T17:25:23;19.00;80.20
46123;DHT22;31856;-35.404;149.120;2024-02-21T17:27:53;19.00;80.30
46123;DHT22;31856;-35.404;149.120;2024-02-21T17:30:22;19.00;80.20
46123;DHT22;31856;-35.404;149.120;2024-02-21T17:32:52;19.00;80.30
46123;DHT22;31856;-35.404;149.120;2024-02-21T17:35:22;19.00;80.10
46123;DHT22;31856;-35.404;149.120;2024-02-21T17:37:53;19.00;80.00
46123;DHT22;31856;-35.404;149.120;2024-02-21T17:40:22;19.00;80.30
46123;DHT22;31856;-35.404;149.120;2024-02-21T17:42:53;19.00;80.20
46123;DHT22;31856;-35.404;149.120;2024-02-21T17:45:23;19.00;80.20
46123;DHT22;31856;-35.404;149.120;2024-02-21T17:47:52;19.00;80.00
46123;DHT22;31856;-35.404;149.120;2024-02-21T17:50:22;19.00;80.10
46123;DHT22;31856;-35.404;149.120;2024-02-21T17:52:52;19.00;80.40
46123;DHT22;31856;-35.404;149.120;2024-02-21T17:55:22;19.00;80.20
46123;DHT22;31856;-35.404;149.120;2024-02-21T17:57:51;19.00;80.20
46123;DHT22;31856;-35.404;149.120;2024-02-21T18:00:20;19.00;80.30
46123;DHT22;31856;-35.404;149.120;2024-02-21T18:02:50;19.00;80.40
46123;DHT22;31856;-35.404;149.120;2024-02-21T18:05:20;19.00;80.20
46123;DHT22;31856;-35.404;149.120;2024-02-21T18:07:50;19.00;80.30
46123;DHT22;31856;-35.404;149.120;2024-02-21T18:10:20;18.90;80.00
46123;DHT22;31856;-35.404;149.120;2024-02-21T18:12:50;18.90;80.40
46123;DHT22;31856;-35.404;149.120;2024-02-21T18:15:20;18.90;80.40
46123;DHT22;31856;-35.404;149.120;2024-02-21T18:17:50;18.80;80.60
46123;DHT22;31856;-35.404;149.120;2024-02-21T18:20:19;18.80;80.40
46123;DHT22;31856;-35.404;149.120;2024-02-21T18:22:49;18.80;80.60
46123;DHT22;31856;-35.404;149.120;2024-02-21T18:25:20;18.80;80.70
46123;DHT22;31856;-35.404;149.120;2024-02-21T18:27:52;18.80;80.50
46123;DHT22;31856;-35.404;149.120;2024-02-21T18:35:20;18.60;80.50
46123;DHT22;31856;-35.404;149.120;2024-02-21T18:37:50;18.70;80.40
46123;DHT22;31856;-35.404;149.120;2024-02-21T18:40:19;18.60;80.40
46123;DHT22;31856;-35.404;149.120;2024-02-21T18:42:49;18.60;80.50
46123;DHT22;31856;-35.404;149.120;2024-02-21T18:45:19;18.60;80.60
46123;DHT22;31856;-35.404;149.120;2024-02-21T18:47:48;18.50;80.70
46123;DHT22;31856;-35.404;149.120;2024-02-21T18:50:18;18.50;80.70
46123;DHT22;31856;-35.404;149.120;2024-02-21T18:52:48;18.50;80.90
46123;DHT22;31856;-35.404;149.120;2024-02-21T18:55:21;18.40;80.90
46123;DHT22;31856;-35.404;149.120;2024-02-21T18:57:52;18.30;80.70
46123;DHT22;31856;-35.404;149.120;2024-02-21T19:00:21;18.30;80.50
46123;DHT22;31856;-35.404;149.120;2024-02-21T19:02:56;18.30;80.50
46123;DHT22;31856;-35.404;149.120;2024-02-21T19:05:26;18.30;80.60
46123;DHT22;31856;-35.404;149.120;2024-02-21T19:07:56;18.20;80.70
46123;DHT22;31856;-35.404;149.120;2024-02-21T19:10:27;18.20;80.50
46123;DHT22;31856;-35.404;149.120;2024-02-21T19:12:57;18.10;80.70
46123;DHT22;31856;-35.404;149.120;2024-02-21T19:15:26;18.10;80.80
46123;DHT22;31856;-35.404;149.120;2024-02-21T19:17:55;18.00;80.60
46123;DHT22;31856;-35.404;149.120;2024-02-21T19:20:25;18.00;80.30
46123;DHT22;31856;-35.404;149.120;2024-02-21T19:22:55;18.00;80.60
46123;DHT22;31856;-35.404;149.120;2024-02-21T19:25:25;17.90;80.70
46123;DHT22;31856;-35.404;149.120;2024-02-21T19:27:54;17.90;80.60
46123;DHT22;31856;-35.404;149.120;2024-02-21T19:30:24;17.90;80.80
46123;DHT22;31856;-35.404;149.120;2024-02-21T19:32:56;17.90;80.70
46123;DHT22;31856;-35.404;149.120;2024-02-21T19:35:25;17.80;80.90
46123;DHT22;31856;-35.404;149.120;2024-02-21T19:37:57;17.80;80.80
46123;DHT22;31856;-35.404;149.120;2024-02-21T19:40:32;17.80;80.70
46123;DHT22;31856;-35.404;149.120;2024-02-21T19:43:01;17.80;80.60
46123;DHT22;31856;-35.404;149.120;2024-02-21T19:45:31;17.70;80.70
46123;DHT22;31856;-35.404;149.120;2024-02-21T19:48:03;17.70;81.00
46123;DHT22;31856;-35.404;149.120;2024-02-21T19:50:33;17.70;80.90
46123;DHT22;31856;-35.404;149.120;2024-02-21T19:53:03;17.60;80.80
46123;DHT22;31856;-35.404;149.120;2024-02-21T19:55:33;17.60;80.70
46123;DHT22;31856;-35.404;149.120;2024-02-21T19:58:03;17.60;80.80
46123;DHT22;31856;-35.404;149.120;2024-02-21T20:00:33;17.60;80.80
46123;DHT22;31856;-35.404;149.120;2024-02-21T20:03:03;17.60;80.90
46123;DHT22;31856;-35.404;149.120;2024-02-21T20:05:33;17.60;81.30
46123;DHT22;31856;-35.404;149.120;2024-02-21T20:08:03;17.50;81.40
46123;DHT22;31856;-35.404;149.120;2024-02-21T20:10:33;17.50;81.30
46123;DHT22;31856;-35.404;149.120;2024-02-21T20:13:02;17.50;81.00
46123;DHT22;31856;-35.404;149.120;2024-02-21T20:56:26;17.70;83.40
46123;DHT22;31856;-35.404;149.120;2024-02-21T20:58:56;17.70;83.20
46123;DHT22;31856;-35.404;149.120;2024-02-21T21:01:25;17.80;83.20
46123;DHT22;31856;-35.404;149.120;2024-02-21T21:03:55;17.80;83.00
46123;DHT22;31856;-35.404;149.120;2024-02-21T21:06:25;17.80;83.20
46123;DHT22;31856;-35.404;149.120;2024-02-21T21:08:55;17.90;83.30
46123;DHT22;31856;-35.404;149.120;2024-02-21T21:11:25;18.00;83.50
46123;DHT22;31856;-35.404;149.120;2024-02-21T21:14:12;17.90;83.10
46123;DHT22;31856;-35.404;149.120;2024-02-21T21:16:41;18.00;83.30
46123;DHT22;31856;-35.404;149.120;2024-02-21T21:19:11;18.00;82.90
46123;DHT22;31856;-35.404;149.120;2024-02-21T21:21:41;18.10;82.90
46123;DHT22;31856;-35.404;149.120;2024-02-21T21:24:13;18.20;82.90
46123;DHT22;31856;-35.404;149.120;2024-02-21T21:26:43;18.20;83.20
46123;DHT22;31856;-35.404;149.120;2024-02-21T21:29:13;18.20;83.30
46123;DHT22;31856;-35.404;149.120;2024-02-21T21:31:43;18.50;82.80
46123;DHT22;31856;-35.404;149.120;2024-02-21T21:34:13;18.90;81.50
46123;DHT22;31856;-35.404;149.120;2024-02-21T21:36:44;19.20;80.40
46123;DHT22;31856;-35.404;149.120;2024-02-21T21:39:14;19.40;79.50
46123;DHT22;31856;-35.404;149.120;2024-02-21T21:41:45;19.50;78.80
46123;DHT22;31856;-35.404;149.120;2024-02-21T21:44:14;19.70;78.50
46123;DHT22;31856;-35.404;149.120;2024-02-21T21:46:44;19.90;78.10
46123;DHT22;31856;-35.404;149.120;2024-02-21T21:49:16;19.90;77.70
46123;DHT22;31856;-35.404;149.120;2024-02-21T21:51:46;20.00;77.00
46123;DHT22;31856;-35.404;149.120;2024-02-21T22:21:55;20.70;75.40
46123;DHT22;31856;-35.404;149.120;2024-02-21T22:24:25;20.80;75.00
46123;DHT22;31856;-35.404;149.120;2024-02-21T22:26:55;20.80;74.90
46123;DHT22;31856;-35.404;149.120;2024-02-21T22:29:25;20.90;74.80
46123;DHT22;31856;-35.404;149.120;2024-02-21T22:31:55;21.00;74.60
46123;DHT22;31856;-35.404;149.120;2024-02-21T22:34:25;21.10;74.30
46123;DHT22;31856;-35.404;149.120;2024-02-21T22:36:56;21.20;74.10
46123;DHT22;31856;-35.404;149.120;2024-02-21T22:39:26;21.30;73.90
46123;DHT22;31856;-35.404;149.120;2024-02-21T22:41:55;21.40;73.80
46123;DHT22;31856;-35.404;149.120;2024-02-21T22:44:27;21.50;73.20
46123;DHT22;31856;-35.404;149.120;2024-02-21T22:46:57;21.60;72.80
46123;DHT22;31856;-35.404;149.120;2024-02-21T22:49:27;21.70;72.70
46123;DHT22;31856;-35.404;149.120;2024-02-21T22:51:57;21.80;72.60
46123;DHT22;31856;-35.404;149.120;2024-02-21T22:54:27;22.00;72.50
46123;DHT22;31856;-35.404;149.120;2024-02-21T22:56:56;22.20;71.90
46123;DHT22;31856;-35.404;149.120;2024-02-21T22:59:26;22.30;71.70
46123;DHT22;31856;-35.404;149.120;2024-02-21T23:01:57;22.40;71.90
46123;DHT22;31856;-35.404;149.120;2024-02-21T23:04:27;22.50;71.40
46123;DHT22;31856;-35.404;149.120;2024-02-21T23:06:57;22.60;71.10
46123;DHT22;31856;-35.404;149.120;2024-02-21T23:09:26;22.80;70.90
46123;DHT22;31856;-35.404;149.120;2024-02-21T23:11:55;22.90;71.00
46123;DHT22;31856;-35.404;149.120;2024-02-21T23:14:26;22.90;70.40
46123;DHT22;31856;-35.404;149.120;2024-02-21T23:16:56;23.10;70.40
46123;DHT22;31856;-35.404;149.120;2024-02-21T23:19:27;23.30;69.60
46123;DHT22;31856;-35.404;149.120;2024-02-21T23:21:57;23.40;69.20
46123;DHT22;31856;-35.404;149.120;2024-02-21T23:24:28;23.60;67.50
46123;DHT22;31856;-35.404;149.120;2024-02-21T23:26:59;23.70;65.50
46123;DHT22;31856;-35.404;149.120;2024-02-21T23:29:28;23.80;65.80
46123;DHT22;31856;-35.404;149.120;2024-02-21T23:31:59;23.90;64.80
46123;DHT22;31856;-35.404;149.120;2024-02-21T23:34:29;24.00;65.70
46123;DHT22;31856;-35.404;149.120;2024-02-21T23:36:59;24.20;65.40
46123;DHT22;31856;-35.404;149.120;2024-02-21T23:39:28;24.20;64.60
46123;DHT22;31856;-35.404;149.120;2024-02-21T23:42:00;24.30;64.70
46123;DHT22;31856;-35.404;149.120;2024-02-21T23:44:31;24.50;64.20
46123;DHT22;31856;-35.404;149.120;2024-02-21T23:47:00;24.60;63.30
